Konotop, Ukraine
Current Conditions -  °F | °C
As of 11:00 PM on Sunday 23 Nov 2014 (Local Time) from UKBB Reporting Station
Haze Haze  
Wind Chill: 17°   Ceiling: 400
Heat Index: 25°   Visibility: 2.4mi
Dew Point: 25°   Wind: 7mph
Humidity: 100%   Direction: 70°ENE
Pressure: 30.48"   Gusts: NA
Location:  51.24°N, 33.21°E
Report Text: UKBB 232000Z 07003MPS 3900 BR OVC004 M04/M04 Q1032 86550536 36591019 TEMPO 1000 -SN BR OVC003
Loading
Personal Weather Stations






























Interactive Weather Map New forecast layout! Learn more

10-Day Weather Forecast

Advertisements
Track Severe Weather on mobile